createdAt,value
2023-11-30T00:02:07.516Z,78.36
2023-11-30T00:05:10.210Z,78.80
2023-11-30T00:08:12.508Z,77.81
2023-11-30T00:11:14.832Z,78.42
2023-11-30T00:14:17.102Z,78.13
2023-11-30T00:17:19.379Z,78.01
2023-11-30T00:20:21.654Z,78.25
2023-11-30T00:23:23.919Z,78.31
2023-11-30T00:26:26.238Z,78.49
2023-11-30T00:29:30.940Z,78.78
2023-11-30T00:32:33.140Z,79.39
2023-11-30T00:35:35.988Z,79.28
2023-11-30T00:38:38.114Z,79.51
2023-11-30T00:41:40.290Z,79.27
2023-11-30T00:44:42.524Z,79.11
2023-11-30T00:47:44.805Z,79.26
2023-11-30T00:50:47.167Z,79.20
2023-11-30T00:53:49.520Z,79.56
2023-11-30T00:56:51.883Z,79.13
2023-11-30T00:59:54.228Z,79.50
2023-11-30T01:02:56.760Z,79.28
2023-11-30T01:05:59.152Z,78.04
2023-11-30T01:09:01.443Z,77.95
2023-11-30T01:12:03.822Z,77.21
2023-11-30T01:15:06.829Z,75.62
2023-11-30T01:18:09.169Z,74.41
2023-11-30T01:21:11.581Z,74.10
2023-11-30T01:24:14.013Z,73.89
2023-11-30T01:27:17.267Z,73.46
2023-11-30T01:30:20.299Z,72.04
2023-11-30T01:33:22.670Z,73.65
2023-11-30T01:36:24.860Z,72.84
2023-11-30T01:39:27.470Z,75.41
2023-11-30T01:42:29.773Z,78.10
2023-11-30T01:45:32.010Z,78.92
2023-11-30T01:48:35.457Z,79.80
2023-11-30T01:51:38.702Z,80.29
2023-11-30T01:54:41.191Z,80.68
2023-11-30T01:57:44.329Z,81.17
2023-11-30T02:00:48.737Z,82.23
2023-11-30T02:03:51.299Z,84.10
2023-11-30T02:06:54.744Z,84.22
2023-11-30T02:09:57.840Z,83.86
2023-11-30T02:13:00.097Z,84.95
2023-11-30T02:16:02.398Z,85.60
2023-11-30T02:19:05.256Z,86.05
2023-11-30T02:22:07.590Z,86.35
2023-11-30T02:25:09.897Z,85.48
2023-11-30T02:28:19.282Z,85.67
2023-11-30T02:31:21.545Z,85.51
2023-11-30T02:34:23.875Z,86.21
2023-11-30T02:37:26.140Z,86.60
2023-11-30T02:40:28.448Z,86.05
2023-11-30T02:43:31.029Z,86.56
2023-11-30T02:46:33.371Z,87.20
2023-11-30T02:49:35.661Z,88.23
2023-11-30T02:52:38.075Z,88.92
2023-11-30T02:55:41.295Z,89.08
2023-11-30T02:58:43.633Z,89.43
2023-11-30T03:01:50.525Z,88.86
2023-11-30T03:04:52.886Z,88.49
2023-11-30T03:07:55.128Z,88.95
2023-11-30T03:10:57.708Z,89.04
2023-11-30T03:13:59.970Z,88.41
2023-11-30T03:17:02.228Z,88.41
2023-11-30T03:20:04.792Z,88.17
2023-11-30T03:23:07.079Z,87.71
2023-11-30T03:26:09.382Z,87.69
2023-11-30T03:29:11.696Z,87.44
2023-11-30T03:32:14.067Z,88.19
2023-11-30T03:35:16.449Z,87.99
2023-11-30T03:38:21.881Z,88.84
2023-11-30T03:41:24.759Z,88.07
2023-11-30T03:44:27.033Z,88.42
2023-11-30T03:47:29.367Z,87.30
2023-11-30T03:50:31.630Z,86.73
2023-11-30T03:53:33.956Z,86.38
2023-11-30T03:56:37.726Z,86.43
2023-11-30T03:59:40.436Z,86.28
2023-11-30T04:02:43.500Z,86.24
2023-11-30T04:05:45.956Z,86.71
2023-11-30T04:08:48.488Z,86.64
2023-11-30T04:11:51.598Z,87.16
2023-11-30T04:14:54.136Z,86.71
2023-11-30T04:17:57.159Z,86.89
2023-11-30T04:20:59.549Z,87.11
2023-11-30T04:24:01.974Z,87.13
2023-11-30T04:27:04.604Z,88.07
2023-11-30T04:30:07.638Z,86.88
2023-11-30T04:33:11.343Z,87.54
2023-11-30T04:36:14.949Z,89.37
2023-11-30T04:39:17.183Z,88.99
2023-11-30T04:42:19.367Z,89.64
2023-11-30T04:45:21.747Z,90.89
2023-11-30T04:48:24.086Z,90.46
2023-11-30T04:51:26.982Z,92.06
2023-11-30T04:54:29.369Z,92.13
2023-11-30T04:57:31.519Z,92.46
2023-11-30T05:00:33.733Z,92.07
2023-11-30T05:03:36.675Z,92.52
2023-11-30T05:06:39.101Z,93.62
2023-11-30T05:09:41.330Z,92.49
2023-11-30T05:12:44.306Z,92.36
2023-11-30T05:15:47.619Z,93.29
2023-11-30T05:18:49.909Z,92.72
2023-11-30T05:21:52.282Z,92.19
2023-11-30T05:24:54.561Z,93.79
2023-11-30T05:27:58.833Z,95.22
2023-11-30T05:31:01.349Z,96.37
2023-11-30T05:34:03.740Z,96.84
2023-11-30T05:37:05.995Z,96.87
2023-11-30T05:40:09.087Z,96.83
2023-11-30T05:43:11.369Z,95.50
2023-11-30T05:46:13.713Z,97.11
2023-11-30T05:49:16.188Z,96.37
2023-11-30T05:52:18.374Z,96.86
2023-11-30T05:55:20.903Z,97.08
2023-11-30T05:58:23.181Z,97.94
2023-11-30T06:01:25.462Z,98.14
2023-11-30T06:04:29.644Z,99.23
2023-11-30T06:07:32.119Z,98.07
2023-11-30T06:10:34.308Z,99.01
2023-11-30T06:13:36.470Z,98.07
2023-11-30T06:16:38.741Z,97.26
2023-11-30T06:19:41.842Z,97.43
2023-11-30T06:22:44.085Z,97.00
2023-11-30T06:25:46.390Z,97.10
2023-11-30T06:28:48.655Z,97.13
2023-11-30T06:31:50.933Z,97.75
2023-11-30T06:34:53.243Z,98.73
2023-11-30T06:37:55.501Z,99.78
2023-11-30T06:40:58.058Z,99.23
2023-11-30T06:44:00.437Z,100.00
2023-11-30T06:47:02.827Z,98.54
2023-11-30T06:50:05.830Z,98.09
2023-11-30T06:53:08.100Z,98.04
2023-11-30T06:56:11.333Z,98.81
2023-11-30T06:59:13.589Z,98.83
2023-11-30T07:02:15.767Z,99.00
2023-11-30T07:05:17.891Z,99.12
2023-11-30T07:08:20.259Z,100.00
2023-11-30T07:11:22.858Z,99.92
2023-11-30T07:14:25.162Z,99.27
2023-11-30T07:17:27.439Z,100.00
2023-11-30T07:20:29.758Z,100.00
2023-11-30T07:23:32.941Z,100.00
2023-11-30T07:26:35.166Z,100.00
2023-11-30T07:29:39.185Z,100.00
2023-11-30T07:32:41.530Z,100.00
2023-11-30T07:35:44.043Z,100.00
2023-11-30T07:38:46.204Z,100.00
2023-11-30T07:41:49.884Z,100.00
2023-11-30T07:44:53.479Z,100.00
2023-11-30T07:47:57.948Z,100.00
2023-11-30T07:51:00.439Z,100.00
2023-11-30T07:54:02.996Z,100.00
2023-11-30T07:57:05.693Z,100.00
2023-11-30T08:00:09.749Z,100.00
2023-11-30T08:03:12.176Z,100.00
2023-11-30T08:06:14.710Z,100.00
2023-11-30T08:09:17.987Z,100.00
2023-11-30T08:12:20.303Z,100.00
2023-11-30T08:15:22.466Z,100.00
2023-11-30T08:18:26.095Z,100.00
2023-11-30T08:21:29.165Z,100.00
2023-11-30T08:24:31.629Z,100.00
2023-11-30T08:27:34.762Z,100.00
2023-11-30T08:33:53.608Z,100.00
2023-11-30T08:36:55.873Z,100.00
2023-11-30T08:40:00.231Z,100.00
2023-11-30T08:43:03.057Z,100.00
2023-11-30T08:46:05.645Z,100.00
2023-11-30T08:49:08.024Z,100.00
2023-11-30T08:52:10.272Z,100.00
2023-11-30T08:55:12.613Z,100.00
2023-11-30T08:58:15.227Z,100.00
2023-11-30T09:01:17.593Z,100.00
2023-11-30T09:04:20.089Z,100.00
2023-11-30T09:07:22.409Z,100.00
2023-11-30T09:10:24.651Z,100.00
2023-11-30T09:13:26.926Z,100.00
2023-11-30T09:16:29.243Z,100.00
2023-11-30T09:19:31.445Z,100.00
2023-11-30T09:22:34.100Z,100.00
2023-11-30T09:25:36.384Z,100.00
2023-11-30T09:28:38.745Z,100.00
2023-11-30T09:31:42.406Z,100.00
2023-11-30T09:34:44.818Z,100.00
2023-11-30T09:37:49.229Z,100.00
2023-11-30T09:40:52.873Z,100.00
2023-11-30T09:43:57.768Z,100.00
2023-11-30T09:47:00.745Z,100.00
2023-11-30T09:50:03.528Z,100.00
2023-11-30T09:53:05.979Z,100.00
2023-11-30T09:56:09.035Z,100.00
2023-11-30T09:59:13.115Z,100.00
2023-11-30T10:02:15.401Z,100.00
2023-11-30T10:05:17.863Z,100.00
2023-11-30T10:08:20.190Z,100.00
2023-11-30T10:11:22.492Z,100.00
2023-11-30T10:14:26.100Z,100.00
2023-11-30T10:17:29.632Z,100.00
2023-11-30T10:20:32.120Z,100.00
2023-11-30T10:23:34.459Z,100.00
2023-11-30T10:26:37.875Z,100.00
2023-11-30T10:29:43.165Z,100.00
2023-11-30T10:32:45.887Z,100.00
2023-11-30T10:35:51.100Z,100.00
2023-11-30T10:38:55.961Z,100.00
2023-11-30T10:42:02.031Z,100.00
2023-11-30T10:45:07.697Z,100.00
2023-11-30T10:48:13.475Z,100.00
2023-11-30T10:51:16.492Z,100.00
2023-11-30T10:54:27.921Z,100.00
2023-11-30T10:57:30.805Z,100.00
2023-11-30T11:00:36.460Z,100.00
2023-11-30T11:03:48.533Z,100.00
2023-11-30T11:06:51.050Z,100.00
2023-11-30T11:09:55.524Z,100.00
2023-11-30T11:13:01.990Z,100.00
2023-11-30T11:16:04.913Z,100.00
2023-11-30T11:19:09.359Z,100.00
2023-11-30T11:22:21.409Z,100.00
2023-11-30T11:25:25.107Z,100.00
2023-11-30T11:28:28.675Z,100.00
2023-11-30T11:31:31.139Z,100.00
2023-11-30T11:34:33.715Z,100.00
2023-11-30T11:37:36.301Z,100.00
2023-11-30T11:40:40.374Z,100.00
2023-11-30T11:43:42.886Z,100.00
2023-11-30T11:46:45.306Z,100.00
2023-11-30T11:49:47.862Z,100.00
2023-11-30T11:52:50.445Z,100.00
2023-11-30T11:55:52.948Z,100.00
2023-11-30T11:58:55.153Z,100.00
2023-11-30T12:01:59.416Z,100.00
2023-11-30T12:05:13.534Z,100.00
2023-11-30T12:08:16.252Z,100.00
2023-11-30T12:11:19.446Z,100.00
2023-11-30T12:14:21.975Z,100.00
2023-11-30T12:17:24.336Z,100.00
2023-11-30T12:20:26.714Z,100.00
2023-11-30T12:23:28.935Z,100.00
2023-11-30T12:26:31.194Z,100.00
2023-11-30T12:29:33.674Z,100.00
2023-11-30T12:32:38.799Z,100.00
2023-11-30T12:35:41.460Z,100.00
2023-11-30T12:38:45.815Z,100.00
2023-11-30T12:41:48.065Z,100.00
2023-11-30T12:44:50.269Z,100.00
2023-11-30T12:47:52.637Z,100.00
2023-11-30T12:50:55.009Z,100.00
2023-11-30T12:53:57.346Z,100.00
2023-11-30T12:56:59.732Z,100.00
2023-11-30T13:00:02.526Z,100.00
2023-11-30T13:03:04.929Z,100.00
2023-11-30T13:06:09.116Z,100.00
2023-11-30T13:09:14.577Z,100.00
2023-11-30T13:12:16.951Z,100.00
2023-11-30T13:15:19.216Z,100.00
2023-11-30T13:18:21.583Z,100.00
2023-11-30T13:21:24.102Z,100.00
2023-11-30T13:24:26.530Z,100.00
2023-11-30T13:27:28.786Z,100.00
2023-11-30T13:30:31.077Z,100.00
2023-11-30T13:33:33.945Z,100.00
2023-11-30T13:36:36.341Z,100.00
2023-11-30T13:39:38.790Z,100.00
2023-11-30T13:42:41.269Z,100.00
2023-11-30T13:45:47.422Z,100.00
2023-11-30T13:48:49.917Z,100.00
2023-11-30T13:51:52.316Z,100.00
2023-11-30T13:54:54.517Z,100.00
2023-11-30T13:57:57.538Z,100.00
2023-11-30T14:01:00.957Z,100.00
2023-11-30T14:04:05.061Z,100.00
2023-11-30T14:07:07.661Z,100.00
2023-11-30T14:10:11.010Z,100.00
2023-11-30T14:13:13.484Z,100.00
2023-11-30T14:16:16.113Z,100.00
2023-11-30T14:19:18.627Z,100.00
2023-11-30T14:22:22.150Z,100.00
2023-11-30T14:25:24.533Z,100.00
2023-11-30T14:28:27.409Z,100.00
2023-11-30T14:31:29.940Z,100.00
2023-11-30T14:34:32.310Z,100.00
2023-11-30T14:37:34.670Z,100.00
2023-11-30T14:40:37.062Z,100.00
2023-11-30T14:43:39.993Z,100.00
2023-11-30T14:46:42.859Z,100.00
2023-11-30T14:49:45.226Z,100.00
2023-11-30T14:52:47.626Z,100.00
2023-11-30T14:55:49.933Z,100.00
2023-11-30T14:58:52.974Z,100.00
2023-11-30T15:01:55.433Z,100.00
2023-11-30T15:04:57.985Z,100.00
2023-11-30T15:08:00.568Z,100.00
2023-11-30T15:11:02.996Z,100.00
2023-11-30T15:14:06.328Z,100.00
2023-11-30T15:17:09.695Z,100.00
2023-11-30T15:20:13.972Z,100.00
2023-11-30T15:23:16.493Z,100.00
2023-11-30T15:26:19.284Z,100.00
2023-11-30T15:29:22.590Z,100.00
2023-11-30T15:32:25.097Z,100.00
2023-11-30T15:35:28.985Z,100.00
2023-11-30T15:38:33.791Z,100.00
2023-11-30T15:41:36.163Z,100.00
2023-11-30T15:44:40.773Z,100.00
2023-11-30T15:47:43.096Z,100.00
2023-11-30T15:50:48.331Z,100.00
2023-11-30T15:53:50.704Z,100.00
2023-11-30T15:56:54.135Z,100.00
2023-11-30T15:59:56.499Z,100.00
2023-11-30T16:02:58.785Z,100.00
2023-11-30T16:06:01.195Z,100.00
2023-11-30T16:09:04.182Z,100.00
2023-11-30T16:12:06.833Z,100.00
2023-11-30T16:15:10.525Z,100.00
2023-11-30T16:18:12.856Z,100.00
2023-11-30T16:21:18.648Z,100.00
2023-11-30T16:24:20.962Z,100.00
2023-11-30T16:27:24.485Z,100.00
2023-11-30T16:30:27.291Z,100.00
2023-11-30T16:33:30.279Z,100.00
2023-11-30T16:36:32.580Z,100.00
2023-11-30T16:39:36.519Z,100.00
2023-11-30T16:42:39.459Z,100.00
2023-11-30T16:45:41.978Z,100.00
2023-11-30T16:48:45.468Z,100.00
2023-11-30T16:51:52.640Z,100.00
2023-11-30T16:54:58.201Z,100.00
2023-11-30T16:58:01.787Z,100.00
2023-11-30T17:01:04.276Z,100.00
2023-11-30T17:04:06.885Z,100.00
2023-11-30T17:07:09.388Z,100.00
2023-11-30T17:10:11.782Z,100.00
2023-11-30T17:13:14.047Z,100.00
2023-11-30T17:16:16.376Z,100.00
2023-11-30T17:19:18.836Z,100.00
2023-11-30T17:22:21.217Z,100.00
2023-11-30T17:25:23.742Z,100.00
2023-11-30T17:28:26.196Z,100.00
2023-11-30T17:31:28.736Z,100.00
2023-11-30T17:34:31.225Z,100.00
2023-11-30T17:37:33.966Z,100.00
2023-11-30T17:40:36.317Z,100.00
2023-11-30T17:43:38.663Z,100.00
2023-11-30T17:46:43.517Z,100.00
2023-11-30T17:49:45.926Z,100.00
2023-11-30T17:52:52.330Z,100.00
2023-11-30T17:55:54.787Z,100.00
2023-11-30T17:58:57.178Z,100.00
2023-11-30T18:01:59.719Z,100.00
2023-11-30T18:05:02.156Z,100.00
2023-11-30T18:08:04.580Z,100.00
2023-11-30T18:11:07.356Z,100.00
2023-11-30T18:14:10.051Z,100.00
2023-11-30T18:17:12.400Z,100.00
2023-11-30T18:20:14.775Z,100.00
2023-11-30T18:23:17.370Z,100.00
2023-11-30T18:26:28.802Z,100.00
2023-11-30T18:29:39.344Z,100.00
2023-11-30T18:32:43.199Z,100.00
2023-11-30T18:36:47.308Z,100.00
2023-11-30T18:39:49.876Z,100.00
2023-11-30T18:42:53.593Z,100.00
2023-11-30T18:45:56.614Z,100.00
2023-11-30T18:48:59.393Z,100.00
2023-11-30T18:52:11.757Z,100.00
2023-11-30T18:55:34.750Z,100.00
2023-11-30T18:58:36.959Z,100.00
2023-11-30T19:01:39.282Z,100.00
2023-11-30T19:04:43.140Z,100.00
2023-11-30T19:07:53.957Z,100.00
2023-11-30T19:10:56.270Z,100.00
2023-11-30T19:13:58.718Z,100.00
2023-11-30T19:17:01.111Z,100.00
2023-11-30T19:20:06.506Z,100.00
2023-11-30T19:23:08.780Z,100.00
2023-11-30T19:26:11.265Z,100.00
2023-11-30T19:29:16.743Z,100.00
2023-11-30T19:32:19.629Z,100.00
2023-11-30T19:35:22.014Z,100.00
2023-11-30T19:38:27.484Z,100.00
2023-11-30T19:41:29.952Z,100.00
2023-11-30T19:44:32.173Z,100.00
2023-11-30T19:47:35.020Z,100.00
2023-11-30T19:50:37.412Z,100.00
2023-11-30T19:58:40.755Z,100.00
2023-11-30T20:01:43.169Z,100.00
2023-11-30T20:04:45.571Z,100.00
2023-11-30T20:07:47.913Z,100.00
2023-11-30T20:10:53.179Z,100.00
2023-11-30T20:13:55.649Z,100.00
2023-11-30T20:16:58.041Z,100.00
2023-11-30T20:20:00.401Z,100.00
2023-11-30T20:23:05.264Z,100.00
2023-11-30T20:26:08.089Z,100.00
2023-11-30T20:29:10.997Z,100.00
2023-11-30T20:32:13.623Z,100.00
2023-11-30T20:35:16.104Z,100.00
2023-11-30T20:38:18.441Z,100.00
2023-11-30T20:41:20.629Z,100.00
2023-11-30T20:44:22.971Z,100.00
2023-11-30T20:47:26.212Z,100.00
2023-11-30T20:50:28.818Z,100.00
2023-11-30T20:53:31.186Z,100.00
2023-11-30T20:56:33.427Z,100.00
2023-11-30T20:59:36.117Z,100.00
2023-11-30T21:02:38.480Z,100.00
2023-11-30T21:05:40.873Z,100.00
2023-11-30T21:08:43.333Z,100.00
2023-11-30T21:11:45.751Z,100.00
2023-11-30T21:14:48.534Z,100.00
2023-11-30T21:17:50.899Z,100.00
2023-11-30T21:25:59.133Z,100.00
2023-11-30T21:29:01.473Z,100.00
2023-11-30T21:32:03.841Z,100.00
2023-11-30T21:35:06.173Z,100.00
2023-11-30T21:38:08.607Z,100.00
2023-11-30T21:41:16.729Z,100.00
2023-11-30T21:44:19.088Z,100.00
2023-11-30T21:47:21.630Z,100.00
2023-11-30T21:50:25.477Z,100.00
2023-11-30T21:53:28.692Z,100.00
2023-11-30T21:56:31.180Z,100.00
2023-11-30T21:59:37.613Z,100.00
2023-11-30T22:02:41.061Z,100.00
2023-11-30T22:05:43.790Z,100.00
2023-11-30T22:08:49.922Z,100.00
2023-11-30T22:11:52.428Z,100.00
2023-11-30T22:14:54.765Z,100.00
2023-11-30T22:17:57.776Z,100.00
2023-11-30T22:21:00.246Z,100.00
2023-11-30T22:24:02.631Z,100.00
2023-11-30T22:27:05.418Z,100.00
2023-11-30T22:30:08.865Z,100.00
2023-11-30T22:33:11.300Z,100.00
2023-11-30T22:36:13.797Z,100.00
2023-11-30T22:39:16.089Z,100.00
2023-11-30T22:42:18.610Z,100.00
2023-11-30T22:45:21.041Z,100.00
2023-11-30T22:48:23.747Z,100.00
2023-11-30T22:51:26.217Z,100.00
2023-11-30T22:54:28.915Z,100.00
2023-11-30T22:57:31.480Z,100.00
2023-11-30T23:00:35.155Z,100.00
2023-11-30T23:03:37.793Z,100.00
2023-11-30T23:06:41.772Z,100.00
2023-11-30T23:09:44.310Z,100.00
2023-11-30T23:12:46.861Z,100.00
2023-11-30T23:15:49.488Z,100.00
2023-11-30T23:18:51.913Z,100.00
2023-11-30T23:21:54.545Z,100.00
2023-11-30T23:24:57.015Z,100.00
2023-11-30T23:28:00.764Z,100.00
2023-11-30T23:31:03.342Z,100.00
2023-11-30T23:34:05.922Z,100.00
2023-11-30T23:37:08.394Z,100.00
2023-11-30T23:40:11.460Z,100.00
2023-11-30T23:43:13.957Z,100.00
2023-11-30T23:46:16.466Z,100.00
2023-11-30T23:49:18.914Z,100.00
2023-11-30T23:52:21.360Z,100.00
2023-11-30T23:55:23.803Z,100.00
2023-11-30T23:58:26.221Z,100.00
